East Braintree, Massachusetts
Current Conditions -  °F | °C
As of 8:46 PM on Wednesday 22 Oct 2014 (Local Time) from KOWD Reporting Station
Heavy Rain Heavy Rain  
Wind Chill: 52°   Ceiling: 800
Heat Index: 52°   Visibility: 2mi
Dew Point: 50°   Wind: 17mph
Humidity: 93%   Direction: 30°NNE
Pressure: 29.81"   Gusts: 48mph
Location:  42.2036°N, 71.0017°W
Report Text: KOWD 230046Z 03015G42KT 2SM +RA BR OVC008 11/10 A2981 RMK AO2 PK WND 04042/0042 P0007 T01110100
Loading
Personal Weather Stations






























Interactive Weather Map
Tropical Storm Tracking
New forecast layout! Learn more

10-Day Weather Forecast

Advertisements
Track Severe Weather on mobile